sensor_id;sensor_type;location;lat;lon;timestamp;P1;durP1;ratioP1;P2;durP2;ratioP2
64037;SDS011;54641;50.168;8.492;2022-07-21T00:01:35;30.00;;;25.20;;
64037;SDS011;54641;50.168;8.492;2022-07-21T00:04:06;32.30;;;25.50;;
64037;SDS011;54641;50.168;8.492;2022-07-21T00:06:36;30.50;;;23.70;;
64037;SDS011;54641;50.168;8.492;2022-07-21T00:09:07;29.00;;;23.10;;
64037;SDS011;54641;50.168;8.492;2022-07-21T00:11:38;26.70;;;22.80;;
64037;SDS011;54641;50.168;8.492;2022-07-21T00:14:09;29.70;;;22.90;;
64037;SDS011;54641;50.168;8.492;2022-07-21T00:16:41;30.00;;;21.90;;
64037;SDS011;54641;50.168;8.492;2022-07-21T00:19:12;27.30;;;22.90;;
64037;SDS011;54641;50.168;8.492;2022-07-21T00:21:42;27.90;;;21.90;;
64037;SDS011;54641;50.168;8.492;2022-07-21T00:24:12;28.70;;;22.10;;
64037;SDS011;54641;50.168;8.492;2022-07-21T00:26:43;25.60;;;20.50;;
64037;SDS011;54641;50.168;8.492;2022-07-21T00:29:13;26.30;;;21.90;;
64037;SDS011;54641;50.168;8.492;2022-07-21T00:31:43;27.10;;;22.00;;
64037;SDS011;54641;50.168;8.492;2022-07-21T00:34:14;26.20;;;21.90;;
64037;SDS011;54641;50.168;8.492;2022-07-21T00:36:44;24.30;;;19.70;;
64037;SDS011;54641;50.168;8.492;2022-07-21T00:39:15;25.10;;;20.50;;
64037;SDS011;54641;50.168;8.492;2022-07-21T00:41:45;22.80;;;19.30;;
64037;SDS011;54641;50.168;8.492;2022-07-21T00:44:22;23.90;;;19.40;;
64037;SDS011;54641;50.168;8.492;2022-07-21T00:46:54;23.40;;;19.30;;
64037;SDS011;54641;50.168;8.492;2022-07-21T00:49:25;22.30;;;19.60;;
64037;SDS011;54641;50.168;8.492;2022-07-21T00:51:56;27.30;;;19.10;;
64037;SDS011;54641;50.168;8.492;2022-07-21T00:54:27;22.90;;;17.20;;
64037;SDS011;54641;50.168;8.492;2022-07-21T00:56:57;22.20;;;17.30;;
64037;SDS011;54641;50.168;8.492;2022-07-21T00:59:28;23.10;;;20.30;;
64037;SDS011;54641;50.168;8.492;2022-07-21T01:01:59;21.80;;;19.50;;
64037;SDS011;54641;50.168;8.492;2022-07-21T01:04:29;23.60;;;20.30;;
64037;SDS011;54641;50.168;8.492;2022-07-21T01:07:01;27.30;;;20.60;;
64037;SDS011;54641;50.168;8.492;2022-07-21T01:09:32;21.30;;;18.90;;
64037;SDS011;54641;50.168;8.492;2022-07-21T01:12:03;26.40;;;19.10;;
64037;SDS011;54641;50.168;8.492;2022-07-21T01:14:36;24.90;;;20.30;;
64037;SDS011;54641;50.168;8.492;2022-07-21T01:17:07;25.50;;;20.60;;
64037;SDS011;54641;50.168;8.492;2022-07-21T01:19:37;23.50;;;21.00;;
64037;SDS011;54641;50.168;8.492;2022-07-21T01:22:08;29.40;;;19.40;;
64037;SDS011;54641;50.168;8.492;2022-07-21T01:24:38;27.70;;;21.00;;
64037;SDS011;54641;50.168;8.492;2022-07-21T01:27:09;26.50;;;21.20;;
64037;SDS011;54641;50.168;8.492;2022-07-21T01:29:39;23.00;;;20.00;;
64037;SDS011;54641;50.168;8.492;2022-07-21T01:32:09;23.30;;;19.40;;
64037;SDS011;54641;50.168;8.492;2022-07-21T01:34:40;24.50;;;21.50;;
64037;SDS011;54641;50.168;8.492;2022-07-21T01:37:10;24.10;;;20.30;;
64037;SDS011;54641;50.168;8.492;2022-07-21T01:39:41;22.00;;;18.50;;
64037;SDS011;54641;50.168;8.492;2022-07-21T01:42:30;26.50;;;20.60;;
64037;SDS011;54641;50.168;8.492;2022-07-21T01:45:01;22.70;;;19.40;;
64037;SDS011;54641;50.168;8.492;2022-07-21T01:47:33;25.50;;;18.90;;
64037;SDS011;54641;50.168;8.492;2022-07-21T01:50:04;19.70;;;16.30;;
64037;SDS011;54641;50.168;8.492;2022-07-21T01:52:35;21.90;;;17.00;;
64037;SDS011;54641;50.168;8.492;2022-07-21T01:55:06;19.20;;;17.10;;
64037;SDS011;54641;50.168;8.492;2022-07-21T01:57:37;18.80;;;16.10;;
64037;SDS011;54641;50.168;8.492;2022-07-21T02:00:08;15.90;;;13.90;;
64037;SDS011;54641;50.168;8.492;2022-07-21T02:02:39;15.10;;;12.90;;
64037;SDS011;54641;50.168;8.492;2022-07-21T02:05:10;15.00;;;11.80;;
64037;SDS011;54641;50.168;8.492;2022-07-21T02:07:41;13.50;;;11.60;;
64037;SDS011;54641;50.168;8.492;2022-07-21T02:10:13;15.80;;;11.60;;
64037;SDS011;54641;50.168;8.492;2022-07-21T02:12:43;14.80;;;12.00;;
64037;SDS011;54641;50.168;8.492;2022-07-21T02:15:14;14.10;;;11.80;;
64037;SDS011;54641;50.168;8.492;2022-07-21T02:17:44;13.10;;;10.40;;
64037;SDS011;54641;50.168;8.492;2022-07-21T02:20:15;13.00;;;10.30;;
64037;SDS011;54641;50.168;8.492;2022-07-21T02:22:45;12.30;;;10.10;;
64037;SDS011;54641;50.168;8.492;2022-07-21T02:25:15;12.90;;;10.60;;
64037;SDS011;54641;50.168;8.492;2022-07-21T02:27:46;14.50;;;11.00;;
64037;SDS011;54641;50.168;8.492;2022-07-21T02:30:17;12.70;;;10.60;;
64037;SDS011;54641;50.168;8.492;2022-07-21T02:32:47;14.80;;;11.00;;
64037;SDS011;54641;50.168;8.492;2022-07-21T02:35:18;12.20;;;10.10;;
64037;SDS011;54641;50.168;8.492;2022-07-21T02:37:49;11.70;;;9.00;;
64037;SDS011;54641;50.168;8.492;2022-07-21T02:40:19;12.50;;;9.90;;
64037;SDS011;54641;50.168;8.492;2022-07-21T02:42:49;11.30;;;8.50;;
64037;SDS011;54641;50.168;8.492;2022-07-21T02:45:20;12.80;;;9.00;;
64037;SDS011;54641;50.168;8.492;2022-07-21T02:47:52;10.00;;;8.10;;
64037;SDS011;54641;50.168;8.492;2022-07-21T02:50:24;10.90;;;7.90;;
64037;SDS011;54641;50.168;8.492;2022-07-21T02:52:57;9.30;;;7.00;;
64037;SDS011;54641;50.168;8.492;2022-07-21T02:55:33;9.20;;;7.30;;
64037;SDS011;54641;50.168;8.492;2022-07-21T02:58:04;10.20;;;6.70;;
64037;SDS011;54641;50.168;8.492;2022-07-21T03:00:38;8.30;;;6.50;;
64037;SDS011;54641;50.168;8.492;2022-07-21T03:03:10;8.10;;;6.40;;
64037;SDS011;54641;50.168;8.492;2022-07-21T03:05:41;8.10;;;5.90;;
64037;SDS011;54641;50.168;8.492;2022-07-21T03:08:12;8.00;;;6.50;;
64037;SDS011;54641;50.168;8.492;2022-07-21T03:10:43;8.00;;;6.00;;
64037;SDS011;54641;50.168;8.492;2022-07-21T03:13:14;11.20;;;7.20;;
64037;SDS011;54641;50.168;8.492;2022-07-21T03:15:44;8.30;;;6.80;;
64037;SDS011;54641;50.168;8.492;2022-07-21T03:18:15;7.30;;;6.00;;
64037;SDS011;54641;50.168;8.492;2022-07-21T03:20:46;8.70;;;6.40;;
64037;SDS011;54641;50.168;8.492;2022-07-21T03:23:16;7.70;;;6.60;;
64037;SDS011;54641;50.168;8.492;2022-07-21T03:25:47;10.00;;;7.20;;
64037;SDS011;54641;50.168;8.492;2022-07-21T03:28:17;8.40;;;6.30;;
64037;SDS011;54641;50.168;8.492;2022-07-21T03:30:48;7.90;;;6.80;;
64037;SDS011;54641;50.168;8.492;2022-07-21T03:33:18;7.40;;;6.10;;
64037;SDS011;54641;50.168;8.492;2022-07-21T03:35:49;7.80;;;6.20;;
64037;SDS011;54641;50.168;8.492;2022-07-21T03:38:19;8.40;;;6.40;;
64037;SDS011;54641;50.168;8.492;2022-07-21T03:40:50;8.50;;;6.70;;
64037;SDS011;54641;50.168;8.492;2022-07-21T03:43:20;7.80;;;6.20;;
64037;SDS011;54641;50.168;8.492;2022-07-21T03:45:51;7.10;;;5.30;;
64037;SDS011;54641;50.168;8.492;2022-07-21T03:48:21;8.50;;;6.10;;
64037;SDS011;54641;50.168;8.492;2022-07-21T03:50:52;8.50;;;6.40;;
64037;SDS011;54641;50.168;8.492;2022-07-21T03:53:23;7.50;;;6.00;;
64037;SDS011;54641;50.168;8.492;2022-07-21T03:55:53;6.70;;;5.60;;
64037;SDS011;54641;50.168;8.492;2022-07-21T03:58:24;9.10;;;6.60;;
64037;SDS011;54641;50.168;8.492;2022-07-21T04:00:54;8.00;;;6.20;;
64037;SDS011;54641;50.168;8.492;2022-07-21T04:03:25;8.70;;;7.00;;
64037;SDS011;54641;50.168;8.492;2022-07-21T04:05:55;7.70;;;6.50;;
64037;SDS011;54641;50.168;8.492;2022-07-21T04:08:26;11.30;;;7.10;;
64037;SDS011;54641;50.168;8.492;2022-07-21T04:10:57;7.70;;;6.20;;
64037;SDS011;54641;50.168;8.492;2022-07-21T04:13:27;9.10;;;7.00;;
64037;SDS011;54641;50.168;8.492;2022-07-21T04:15:58;10.30;;;7.20;;
64037;SDS011;54641;50.168;8.492;2022-07-21T04:18:28;9.90;;;6.70;;
64037;SDS011;54641;50.168;8.492;2022-07-21T04:20:59;7.20;;;6.10;;
64037;SDS011;54641;50.168;8.492;2022-07-21T04:23:29;12.50;;;6.60;;
64037;SDS011;54641;50.168;8.492;2022-07-21T04:26:00;10.60;;;6.90;;
64037;SDS011;54641;50.168;8.492;2022-07-21T04:28:30;8.70;;;7.20;;
64037;SDS011;54641;50.168;8.492;2022-07-21T04:33:30;12.00;;;7.10;;
64037;SDS011;54641;50.168;8.492;2022-07-21T04:36:05;10.30;;;7.30;;
64037;SDS011;54641;50.168;8.492;2022-07-21T04:38:36;10.40;;;6.50;;
64037;SDS011;54641;50.168;8.492;2022-07-21T04:41:07;9.50;;;7.10;;
64037;SDS011;54641;50.168;8.492;2022-07-21T04:43:37;8.70;;;7.20;;
64037;SDS011;54641;50.168;8.492;2022-07-21T04:46:09;8.90;;;7.50;;
64037;SDS011;54641;50.168;8.492;2022-07-21T04:48:42;9.90;;;7.50;;
64037;SDS011;54641;50.168;8.492;2022-07-21T04:51:13;8.20;;;7.10;;
64037;SDS011;54641;50.168;8.492;2022-07-21T04:53:43;8.80;;;7.10;;
64037;SDS011;54641;50.168;8.492;2022-07-21T04:56:13;8.90;;;7.40;;
64037;SDS011;54641;50.168;8.492;2022-07-21T04:58:44;10.30;;;7.40;;
64037;SDS011;54641;50.168;8.492;2022-07-21T05:01:14;10.50;;;7.60;;
64037;SDS011;54641;50.168;8.492;2022-07-21T05:03:45;11.00;;;7.60;;
64037;SDS011;54641;50.168;8.492;2022-07-21T05:06:16;10.50;;;7.50;;
64037;SDS011;54641;50.168;8.492;2022-07-21T05:08:53;9.50;;;7.30;;
64037;SDS011;54641;50.168;8.492;2022-07-21T05:11:24;9.80;;;7.70;;
64037;SDS011;54641;50.168;8.492;2022-07-21T05:13:55;14.10;;;7.40;;
64037;SDS011;54641;50.168;8.492;2022-07-21T05:16:26;12.00;;;8.10;;
64037;SDS011;54641;50.168;8.492;2022-07-21T05:18:56;10.20;;;7.40;;
64037;SDS011;54641;50.168;8.492;2022-07-21T05:21:27;9.10;;;7.00;;
64037;SDS011;54641;50.168;8.492;2022-07-21T05:23:57;9.30;;;7.60;;
64037;SDS011;54641;50.168;8.492;2022-07-21T05:26:27;9.70;;;7.90;;
64037;SDS011;54641;50.168;8.492;2022-07-21T05:28:58;9.40;;;7.90;;
64037;SDS011;54641;50.168;8.492;2022-07-21T05:31:28;11.20;;;8.30;;
64037;SDS011;54641;50.168;8.492;2022-07-21T05:33:59;12.60;;;7.50;;
64037;SDS011;54641;50.168;8.492;2022-07-21T05:36:29;11.50;;;7.80;;
64037;SDS011;54641;50.168;8.492;2022-07-21T05:39:00;10.60;;;8.00;;
64037;SDS011;54641;50.168;8.492;2022-07-21T05:41:30;9.50;;;8.00;;
64037;SDS011;54641;50.168;8.492;2022-07-21T05:44:01;10.30;;;8.10;;
64037;SDS011;54641;50.168;8.492;2022-07-21T05:46:31;10.40;;;8.00;;
64037;SDS011;54641;50.168;8.492;2022-07-21T05:49:02;11.40;;;8.40;;
64037;SDS011;54641;50.168;8.492;2022-07-21T05:51:32;10.80;;;8.60;;
64037;SDS011;54641;50.168;8.492;2022-07-21T05:54:03;10.00;;;8.70;;
64037;SDS011;54641;50.168;8.492;2022-07-21T05:56:34;9.90;;;8.00;;
64037;SDS011;54641;50.168;8.492;2022-07-21T05:59:05;10.70;;;8.70;;
64037;SDS011;54641;50.168;8.492;2022-07-21T06:01:35;10.60;;;8.40;;
64037;SDS011;54641;50.168;8.492;2022-07-21T06:04:06;9.70;;;8.70;;
64037;SDS011;54641;50.168;8.492;2022-07-21T06:06:36;9.80;;;8.80;;
64037;SDS011;54641;50.168;8.492;2022-07-21T06:09:07;11.60;;;8.50;;
64037;SDS011;54641;50.168;8.492;2022-07-21T06:11:37;10.00;;;9.00;;
64037;SDS011;54641;50.168;8.492;2022-07-21T06:14:08;9.70;;;8.70;;
64037;SDS011;54641;50.168;8.492;2022-07-21T06:16:38;9.80;;;8.80;;
64037;SDS011;54641;50.168;8.492;2022-07-21T06:19:09;9.90;;;8.60;;
64037;SDS011;54641;50.168;8.492;2022-07-21T06:21:39;9.50;;;8.50;;
64037;SDS011;54641;50.168;8.492;2022-07-21T06:24:13;11.10;;;10.00;;
64037;SDS011;54641;50.168;8.492;2022-07-21T06:26:44;10.90;;;9.80;;
64037;SDS011;54641;50.168;8.492;2022-07-21T06:29:14;10.80;;;9.80;;
64037;SDS011;54641;50.168;8.492;2022-07-21T06:31:45;10.40;;;9.30;;
64037;SDS011;54641;50.168;8.492;2022-07-21T06:34:15;10.50;;;9.40;;
64037;SDS011;54641;50.168;8.492;2022-07-21T06:36:46;11.80;;;10.30;;
64037;SDS011;54641;50.168;8.492;2022-07-21T06:39:16;10.80;;;9.70;;
64037;SDS011;54641;50.168;8.492;2022-07-21T06:41:47;12.40;;;10.30;;
64037;SDS011;54641;50.168;8.492;2022-07-21T06:44:19;10.70;;;9.50;;
64037;SDS011;54641;50.168;8.492;2022-07-21T06:46:52;11.80;;;9.80;;
64037;SDS011;54641;50.168;8.492;2022-07-21T06:49:23;10.80;;;9.20;;
64037;SDS011;54641;50.168;8.492;2022-07-21T06:51:53;11.40;;;10.20;;
64037;SDS011;54641;50.168;8.492;2022-07-21T06:54:23;10.90;;;9.10;;
64037;SDS011;54641;50.168;8.492;2022-07-21T06:56:54;10.80;;;9.20;;
64037;SDS011;54641;50.168;8.492;2022-07-21T06:59:24;11.80;;;8.80;;
64037;SDS011;54641;50.168;8.492;2022-07-21T07:01:55;10.70;;;9.30;;
64037;SDS011;54641;50.168;8.492;2022-07-21T07:04:27;12.60;;;10.40;;
64037;SDS011;54641;50.168;8.492;2022-07-21T07:06:57;10.60;;;9.30;;
64037;SDS011;54641;50.168;8.492;2022-07-21T07:09:28;10.40;;;9.30;;
64037;SDS011;54641;50.168;8.492;2022-07-21T07:11:58;9.90;;;8.70;;
64037;SDS011;54641;50.168;8.492;2022-07-21T07:14:51;10.40;;;9.40;;
64037;SDS011;54641;50.168;8.492;2022-07-21T07:17:21;10.40;;;9.40;;
64037;SDS011;54641;50.168;8.492;2022-07-21T07:19:52;13.40;;;10.30;;
64037;SDS011;54641;50.168;8.492;2022-07-21T07:22:22;10.40;;;9.40;;
64037;SDS011;54641;50.168;8.492;2022-07-21T07:24:53;10.50;;;8.50;;
64037;SDS011;54641;50.168;8.492;2022-07-21T07:27:24;10.20;;;8.80;;
64037;SDS011;54641;50.168;8.492;2022-07-21T07:30:01;9.20;;;8.30;;
64037;SDS011;54641;50.168;8.492;2022-07-21T07:32:36;9.80;;;8.80;;
64037;SDS011;54641;50.168;8.492;2022-07-21T07:35:08;11.60;;;9.00;;
64037;SDS011;54641;50.168;8.492;2022-07-21T07:37:39;11.00;;;8.70;;
64037;SDS011;54641;50.168;8.492;2022-07-21T07:40:12;9.70;;;8.30;;
64037;SDS011;54641;50.168;8.492;2022-07-21T07:42:45;11.50;;;8.80;;
64037;SDS011;54641;50.168;8.492;2022-07-21T07:45:16;9.40;;;7.70;;
64037;SDS011;54641;50.168;8.492;2022-07-21T07:47:46;9.40;;;8.40;;
64037;SDS011;54641;50.168;8.492;2022-07-21T07:50:17;9.20;;;8.30;;
64037;SDS011;54641;50.168;8.492;2022-07-21T07:52:47;8.00;;;6.70;;
64037;SDS011;54641;50.168;8.492;2022-07-21T07:55:18;9.80;;;8.10;;
64037;SDS011;54641;50.168;8.492;2022-07-21T07:57:48;10.10;;;8.60;;
64037;SDS011;54641;50.168;8.492;2022-07-21T08:00:20;12.50;;;8.60;;
64037;SDS011;54641;50.168;8.492;2022-07-21T08:03:10;10.90;;;8.80;;
64037;SDS011;54641;50.168;8.492;2022-07-21T08:05:41;7.60;;;6.70;;
64037;SDS011;54641;50.168;8.492;2022-07-21T08:08:12;9.60;;;8.10;;
64037;SDS011;54641;50.168;8.492;2022-07-21T08:10:43;10.60;;;8.80;;
64037;SDS011;54641;50.168;8.492;2022-07-21T08:13:15;10.10;;;9.00;;
64037;SDS011;54641;50.168;8.492;2022-07-21T08:15:46;10.70;;;9.00;;
64037;SDS011;54641;50.168;8.492;2022-07-21T08:18:17;9.30;;;8.40;;
64037;SDS011;54641;50.168;8.492;2022-07-21T08:20:48;9.60;;;8.40;;
64037;SDS011;54641;50.168;8.492;2022-07-21T08:23:18;7.90;;;7.00;;
64037;SDS011;54641;50.168;8.492;2022-07-21T08:25:49;9.90;;;8.20;;
64037;SDS011;54641;50.168;8.492;2022-07-21T08:28:19;11.10;;;8.50;;
64037;SDS011;54641;50.168;8.492;2022-07-21T08:30:49;10.10;;;8.50;;
64037;SDS011;54641;50.168;8.492;2022-07-21T08:33:20;11.90;;;8.40;;
64037;SDS011;54641;50.168;8.492;2022-07-21T08:35:50;8.80;;;7.90;;
64037;SDS011;54641;50.168;8.492;2022-07-21T08:38:21;8.60;;;7.70;;
64037;SDS011;54641;50.168;8.492;2022-07-21T08:40:53;9.10;;;7.90;;
64037;SDS011;54641;50.168;8.492;2022-07-21T08:43:24;8.50;;;7.30;;
64037;SDS011;54641;50.168;8.492;2022-07-21T08:45:54;8.00;;;7.20;;
64037;SDS011;54641;50.168;8.492;2022-07-21T08:48:25;9.40;;;7.90;;
64037;SDS011;54641;50.168;8.492;2022-07-21T08:50:57;9.10;;;7.90;;
64037;SDS011;54641;50.168;8.492;2022-07-21T08:53:27;9.90;;;8.70;;
64037;SDS011;54641;50.168;8.492;2022-07-21T08:55:58;10.60;;;8.30;;
64037;SDS011;54641;50.168;8.492;2022-07-21T08:58:28;8.70;;;7.90;;
64037;SDS011;54641;50.168;8.492;2022-07-21T09:00:59;10.40;;;9.30;;
64037;SDS011;54641;50.168;8.492;2022-07-21T09:03:29;9.50;;;8.40;;
64037;SDS011;54641;50.168;8.492;2022-07-21T09:06:01;9.10;;;7.90;;
64037;SDS011;54641;50.168;8.492;2022-07-21T09:08:35;9.70;;;7.90;;
64037;SDS011;54641;50.168;8.492;2022-07-21T09:11:11;11.00;;;8.70;;
64037;SDS011;54641;50.168;8.492;2022-07-21T09:13:47;10.40;;;8.60;;
64037;SDS011;54641;50.168;8.492;2022-07-21T09:16:36;10.40;;;8.90;;
64037;SDS011;54641;50.168;8.492;2022-07-21T09:19:14;9.50;;;8.50;;
64037;SDS011;54641;50.168;8.492;2022-07-21T09:21:46;9.40;;;8.40;;
64037;SDS011;54641;50.168;8.492;2022-07-21T09:24:19;10.40;;;8.30;;
64037;SDS011;54641;50.168;8.492;2022-07-21T09:27:00;8.90;;;7.80;;
64037;SDS011;54641;50.168;8.492;2022-07-21T09:29:37;9.00;;;8.10;;
64037;SDS011;54641;50.168;8.492;2022-07-21T09:32:13;10.70;;;8.20;;
64037;SDS011;54641;50.168;8.492;2022-07-21T09:34:45;9.90;;;7.90;;
64037;SDS011;54641;50.168;8.492;2022-07-21T09:37:17;9.30;;;8.50;;
64037;SDS011;54641;50.168;8.492;2022-07-21T09:39:49;8.30;;;7.50;;
64037;SDS011;54641;50.168;8.492;2022-07-21T09:42:23;11.50;;;7.70;;
64037;SDS011;54641;50.168;8.492;2022-07-21T09:44:56;9.70;;;7.50;;
64037;SDS011;54641;50.168;8.492;2022-07-21T09:47:28;7.50;;;6.70;;
64037;SDS011;54641;50.168;8.492;2022-07-21T09:52:49;7.70;;;6.60;;
64037;SDS011;54641;50.168;8.492;2022-07-21T09:55:23;8.30;;;6.60;;
64037;SDS011;54641;50.168;8.492;2022-07-21T09:57:56;8.30;;;6.80;;
64037;SDS011;54641;50.168;8.492;2022-07-21T10:00:27;6.50;;;5.90;;
64037;SDS011;54641;50.168;8.492;2022-07-21T10:02:58;9.80;;;6.90;;
64037;SDS011;54641;50.168;8.492;2022-07-21T10:05:29;8.20;;;6.10;;
64037;SDS011;54641;50.168;8.492;2022-07-21T10:08:01;7.50;;;6.70;;
64037;SDS011;54641;50.168;8.492;2022-07-21T10:10:34;8.00;;;7.20;;
64037;SDS011;54641;50.168;8.492;2022-07-21T10:13:25;8.50;;;7.50;;
64037;SDS011;54641;50.168;8.492;2022-07-21T10:15:57;7.70;;;7.00;;
64037;SDS011;54641;50.168;8.492;2022-07-21T10:18:28;9.20;;;7.90;;
64037;SDS011;54641;50.168;8.492;2022-07-21T10:21:04;10.20;;;7.10;;
64037;SDS011;54641;50.168;8.492;2022-07-21T10:23:40;7.50;;;6.70;;
64037;SDS011;54641;50.168;8.492;2022-07-21T10:26:11;8.30;;;7.10;;
64037;SDS011;54641;50.168;8.492;2022-07-21T10:28:42;9.10;;;6.60;;
64037;SDS011;54641;50.168;8.492;2022-07-21T10:31:14;8.40;;;6.30;;
64037;SDS011;54641;50.168;8.492;2022-07-21T10:33:53;7.40;;;6.60;;
64037;SDS011;54641;50.168;8.492;2022-07-21T10:36:42;6.90;;;6.20;;
64037;SDS011;54641;50.168;8.492;2022-07-21T10:41:59;7.60;;;6.20;;
64037;SDS011;54641;50.168;8.492;2022-07-21T10:47:18;7.20;;;6.50;;
64037;SDS011;54641;50.168;8.492;2022-07-21T10:49:52;7.50;;;6.10;;
64037;SDS011;54641;50.168;8.492;2022-07-21T10:55:28;6.60;;;5.90;;
64037;SDS011;54641;50.168;8.492;2022-07-21T11:00:49;6.70;;;5.60;;
64037;SDS011;54641;50.168;8.492;2022-07-21T11:03:21;7.20;;;6.20;;
64037;SDS011;54641;50.168;8.492;2022-07-21T11:06:12;6.10;;;5.50;;
64037;SDS011;54641;50.168;8.492;2022-07-21T11:08:44;6.40;;;5.60;;
64037;SDS011;54641;50.168;8.492;2022-07-21T11:11:16;7.30;;;5.80;;
64037;SDS011;54641;50.168;8.492;2022-07-21T11:14:03;6.90;;;5.80;;
64037;SDS011;54641;50.168;8.492;2022-07-21T11:19:40;10.40;;;5.20;;
64037;SDS011;54641;50.168;8.492;2022-07-21T11:22:16;6.40;;;5.00;;
64037;SDS011;54641;50.168;8.492;2022-07-21T11:24:48;6.90;;;5.50;;
64037;SDS011;54641;50.168;8.492;2022-07-21T11:27:26;7.30;;;5.50;;
64037;SDS011;54641;50.168;8.492;2022-07-21T11:29:58;5.50;;;4.80;;
64037;SDS011;54641;50.168;8.492;2022-07-21T11:32:29;5.30;;;4.60;;
64037;SDS011;54641;50.168;8.492;2022-07-21T11:35:00;5.80;;;5.20;;
64037;SDS011;54641;50.168;8.492;2022-07-21T11:37:33;6.40;;;4.80;;
64037;SDS011;54641;50.168;8.492;2022-07-21T11:40:07;5.20;;;4.60;;
64037;SDS011;54641;50.168;8.492;2022-07-21T11:42:41;7.40;;;4.60;;
64037;SDS011;54641;50.168;8.492;2022-07-21T11:45:13;5.30;;;4.60;;
64037;SDS011;54641;50.168;8.492;2022-07-21T11:47:45;5.90;;;4.90;;
64037;SDS011;54641;50.168;8.492;2022-07-21T11:50:19;5.40;;;4.30;;
64037;SDS011;54641;50.168;8.492;2022-07-21T11:52:50;5.30;;;4.70;;
64037;SDS011;54641;50.168;8.492;2022-07-21T11:55:20;5.60;;;4.40;;
64037;SDS011;54641;50.168;8.492;2022-07-21T11:57:51;5.30;;;4.50;;
64037;SDS011;54641;50.168;8.492;2022-07-21T12:00:21;4.90;;;4.00;;
64037;SDS011;54641;50.168;8.492;2022-07-21T12:03:04;5.50;;;4.10;;
64037;SDS011;54641;50.168;8.492;2022-07-21T12:05:36;5.50;;;4.00;;
64037;SDS011;54641;50.168;8.492;2022-07-21T12:08:07;6.50;;;5.20;;
64037;SDS011;54641;50.168;8.492;2022-07-21T12:10:37;5.40;;;4.40;;
64037;SDS011;54641;50.168;8.492;2022-07-21T12:13:08;5.70;;;4.60;;
64037;SDS011;54641;50.168;8.492;2022-07-21T12:18:17;5.50;;;4.10;;
64037;SDS011;54641;50.168;8.492;2022-07-21T12:20:49;4.70;;;4.20;;
64037;SDS011;54641;50.168;8.492;2022-07-21T12:23:30;4.90;;;4.40;;
64037;SDS011;54641;50.168;8.492;2022-07-21T12:26:02;6.20;;;4.50;;
64037;SDS011;54641;50.168;8.492;2022-07-21T12:28:45;6.70;;;4.30;;
64037;SDS011;54641;50.168;8.492;2022-07-21T12:31:18;4.90;;;4.30;;
64037;SDS011;54641;50.168;8.492;2022-07-21T12:33:50;5.40;;;4.60;;
64037;SDS011;54641;50.168;8.492;2022-07-21T12:36:41;6.60;;;4.80;;
64037;SDS011;54641;50.168;8.492;2022-07-21T12:42:00;5.50;;;4.70;;
64037;SDS011;54641;50.168;8.492;2022-07-21T12:44:31;7.30;;;4.80;;
64037;SDS011;54641;50.168;8.492;2022-07-21T12:47:14;6.40;;;5.50;;
64037;SDS011;54641;50.168;8.492;2022-07-21T12:49:56;6.20;;;5.40;;
64037;SDS011;54641;50.168;8.492;2022-07-21T12:52:47;6.40;;;5.20;;
64037;SDS011;54641;50.168;8.492;2022-07-21T12:55:18;6.90;;;6.10;;
64037;SDS011;54641;50.168;8.492;2022-07-21T12:57:48;5.80;;;5.30;;
64037;SDS011;54641;50.168;8.492;2022-07-21T13:00:18;6.30;;;5.70;;
64037;SDS011;54641;50.168;8.492;2022-07-21T13:02:49;6.60;;;6.00;;
64037;SDS011;54641;50.168;8.492;2022-07-21T13:05:21;6.80;;;5.80;;
64037;SDS011;54641;50.168;8.492;2022-07-21T13:07:52;6.20;;;5.60;;
64037;SDS011;54641;50.168;8.492;2022-07-21T13:10:23;6.10;;;5.50;;
64037;SDS011;54641;50.168;8.492;2022-07-21T13:12:53;6.40;;;5.80;;
64037;SDS011;54641;50.168;8.492;2022-07-21T13:15:24;5.60;;;5.00;;
64037;SDS011;54641;50.168;8.492;2022-07-21T13:17:54;5.80;;;5.30;;
64037;SDS011;54641;50.168;8.492;2022-07-21T13:20:25;7.00;;;6.30;;
64037;SDS011;54641;50.168;8.492;2022-07-21T13:22:56;6.90;;;6.20;;
64037;SDS011;54641;50.168;8.492;2022-07-21T13:25:26;7.20;;;5.70;;
64037;SDS011;54641;50.168;8.492;2022-07-21T13:27:59;6.30;;;5.70;;
64037;SDS011;54641;50.168;8.492;2022-07-21T13:30:30;8.20;;;6.20;;
64037;SDS011;54641;50.168;8.492;2022-07-21T13:33:08;6.80;;;5.70;;
64037;SDS011;54641;50.168;8.492;2022-07-21T13:35:39;6.70;;;6.10;;
64037;SDS011;54641;50.168;8.492;2022-07-21T13:38:09;7.40;;;6.30;;
64037;SDS011;54641;50.168;8.492;2022-07-21T13:40:41;7.50;;;6.50;;
64037;SDS011;54641;50.168;8.492;2022-07-21T13:43:31;8.10;;;6.20;;
64037;SDS011;54641;50.168;8.492;2022-07-21T13:46:06;6.70;;;6.10;;
64037;SDS011;54641;50.168;8.492;2022-07-21T13:48:36;6.70;;;5.80;;
64037;SDS011;54641;50.168;8.492;2022-07-21T13:51:11;7.90;;;6.10;;
64037;SDS011;54641;50.168;8.492;2022-07-21T13:53:43;7.10;;;6.30;;
64037;SDS011;54641;50.168;8.492;2022-07-21T13:58:43;7.70;;;6.10;;
64037;SDS011;54641;50.168;8.492;2022-07-21T14:01:14;8.40;;;6.30;;
64037;SDS011;54641;50.168;8.492;2022-07-21T14:03:45;7.70;;;6.70;;
64037;SDS011;54641;50.168;8.492;2022-07-21T14:06:17;6.90;;;6.20;;
64037;SDS011;54641;50.168;8.492;2022-07-21T14:08:47;7.00;;;6.00;;
64037;SDS011;54641;50.168;8.492;2022-07-21T14:11:18;8.50;;;6.70;;
64037;SDS011;54641;50.168;8.492;2022-07-21T14:13:51;8.60;;;6.20;;
64037;SDS011;54641;50.168;8.492;2022-07-21T14:16:21;9.00;;;6.20;;
64037;SDS011;54641;50.168;8.492;2022-07-21T14:18:52;8.90;;;7.00;;
64037;SDS011;54641;50.168;8.492;2022-07-21T14:21:23;8.70;;;7.30;;
64037;SDS011;54641;50.168;8.492;2022-07-21T14:23:54;7.70;;;6.90;;
64037;SDS011;54641;50.168;8.492;2022-07-21T14:26:39;8.50;;;7.30;;
64037;SDS011;54641;50.168;8.492;2022-07-21T14:29:10;7.30;;;6.60;;
64037;SDS011;54641;50.168;8.492;2022-07-21T14:31:40;7.10;;;6.40;;
64037;SDS011;54641;50.168;8.492;2022-07-21T14:34:11;7.70;;;6.90;;
64037;SDS011;54641;50.168;8.492;2022-07-21T14:36:41;7.90;;;7.00;;
64037;SDS011;54641;50.168;8.492;2022-07-21T14:39:11;8.50;;;6.90;;
64037;SDS011;54641;50.168;8.492;2022-07-21T14:41:42;8.70;;;7.80;;
64037;SDS011;54641;50.168;8.492;2022-07-21T14:44:13;9.70;;;7.40;;
64037;SDS011;54641;50.168;8.492;2022-07-21T14:46:43;7.30;;;6.60;;
64037;SDS011;54641;50.168;8.492;2022-07-21T14:49:14;10.00;;;7.50;;
64037;SDS011;54641;50.168;8.492;2022-07-21T14:51:45;8.80;;;8.00;;
64037;SDS011;54641;50.168;8.492;2022-07-21T14:54:15;7.90;;;7.00;;
64037;SDS011;54641;50.168;8.492;2022-07-21T14:56:45;8.20;;;7.40;;
64037;SDS011;54641;50.168;8.492;2022-07-21T14:59:35;7.90;;;7.20;;
64037;SDS011;54641;50.168;8.492;2022-07-21T15:02:06;9.20;;;8.20;;
64037;SDS011;54641;50.168;8.492;2022-07-21T15:04:45;9.20;;;7.40;;
64037;SDS011;54641;50.168;8.492;2022-07-21T15:07:16;8.40;;;7.50;;
64037;SDS011;54641;50.168;8.492;2022-07-21T15:09:46;8.70;;;7.90;;
64037;SDS011;54641;50.168;8.492;2022-07-21T15:12:16;8.80;;;7.90;;
64037;SDS011;54641;50.168;8.492;2022-07-21T15:14:47;8.40;;;7.60;;
64037;SDS011;54641;50.168;8.492;2022-07-21T15:17:17;8.90;;;6.90;;
64037;SDS011;54641;50.168;8.492;2022-07-21T15:19:47;9.10;;;7.70;;
64037;SDS011;54641;50.168;8.492;2022-07-21T15:22:18;9.40;;;7.00;;
64037;SDS011;54641;50.168;8.492;2022-07-21T15:24:49;8.40;;;7.30;;
64037;SDS011;54641;50.168;8.492;2022-07-21T15:27:20;9.10;;;7.40;;
64037;SDS011;54641;50.168;8.492;2022-07-21T15:29:50;9.00;;;7.30;;
64037;SDS011;54641;50.168;8.492;2022-07-21T15:32:21;8.00;;;7.30;;
64037;SDS011;54641;50.168;8.492;2022-07-21T15:34:51;9.40;;;7.00;;
64037;SDS011;54641;50.168;8.492;2022-07-21T15:37:21;8.80;;;7.40;;